Time;durP1;ratioP1;P1;durP2;ratioP2;P2;SDS_P1;SDS_P2;PMS_P1;PMS_P2;Temp;Humidity;BMP_temperature;BMP_pressure;BME280_temperature;BME280_humidity;BME280_pressure;Samples;Min_cycle;Max_cycle;Signal;HPM_P1;HPM_P2
2023/04/28 00:00:39;;;;;;;2.90;1.90;;;17.20;99.90;;;;;;4098115;29;20051;-51
2023/04/28 00:02:42;;;;;;;3.42;2.10;;;17.30;99.90;;;;;;4131937;28;20104;-51
2023/04/28 00:04:44;;;;;;;6.38;1.88;;;17.20;99.90;;;;;;4114923;28;20113;-53
2023/04/28 00:06:48;;;;;;;2.20;1.92;;;17.30;99.90;;;;;;4131999;28;20050;-52
2023/04/28 00:08:50;;;;;;;2.53;2.03;;;17.30;99.90;;;;;;4132536;28;20046;-54
2023/04/28 00:10:52;;;;;;;3.25;2.10;;;17.30;99.90;;;;;;4131265;28;20101;-51
2023/04/28 00:12:54;;;;;;;3.40;1.77;;;17.30;99.90;;;;;;4133407;28;20440;-52
2023/04/28 00:14:56;;;;;;;2.25;1.77;;;17.30;99.90;;;;;;4133026;28;20053;-51
2023/04/28 00:16:58;;;;;;;4.80;2.30;;;17.30;99.90;;;;;;4132162;28;20064;-51
2023/04/28 00:19:00;;;;;;;5.40;2.22;;;17.20;99.90;;;;;;4132001;28;20126;-50
2023/04/28 00:21:03;;;;;;;3.70;1.77;;;17.20;99.90;;;;;;4130692;28;20058;-52
2023/04/28 00:23:06;;;;;;;6.00;1.98;;;17.20;99.90;;;;;;4131808;28;20056;-51
2023/04/28 00:25:08;;;;;;;2.63;2.00;;;17.20;99.90;;;;;;4131737;28;20072;-52
2023/04/28 00:27:11;;;;;;;2.25;2.00;;;17.20;99.90;;;;;;4131832;28;20117;-51
2023/04/28 00:29:13;;;;;;;2.83;2.10;;;17.10;99.90;;;;;;4132008;28;20081;-54
2023/04/28 00:31:15;;;;;;;2.53;1.75;;;17.10;99.90;;;;;;4130690;28;20053;-52
2023/04/28 00:33:17;;;;;;;4.78;2.38;;;17.20;99.90;;;;;;4131666;28;20046;-50
2023/04/28 00:35:20;;;;;;;4.80;1.67;;;17.20;99.90;;;;;;4131886;28;20050;-51
2023/04/28 00:37:22;;;;;;;3.85;2.25;;;17.10;99.90;;;;;;4131728;28;20050;-52
2023/04/28 00:39:26;;;;;;;4.22;2.20;;;17.10;99.90;;;;;;4131591;28;20512;-51
2023/04/28 00:41:28;;;;;;;1.77;1.45;;;17.20;99.90;;;;;;4131350;28;20072;-51
2023/04/28 00:43:31;;;;;;;3.72;1.63;;;17.10;99.90;;;;;;4131839;28;20059;-53
2023/04/28 00:45:33;;;;;;;5.22;2.35;;;17.10;99.90;;;;;;4131814;28;20130;-52
2023/04/28 00:47:36;;;;;;;3.50;2.45;;;17.10;99.90;;;;;;4131186;28;20042;-51
2023/04/28 00:49:38;;;;;;;4.28;1.85;;;17.10;99.90;;;;;;4130864;28;20097;-52
2023/04/28 00:51:40;;;;;;;8.05;2.80;;;17.00;99.90;;;;;;4131516;28;20068;-52
2023/04/28 00:53:43;;;;;;;4.88;2.08;;;17.00;99.90;;;;;;4114146;28;20126;-53
2023/04/28 00:55:48;;;;;;;2.20;1.85;;;17.00;99.90;;;;;;4131515;28;20042;-52
2023/04/28 00:57:50;;;;;;;5.15;2.03;;;17.00;99.90;;;;;;4131763;28;20050;-51
2023/04/28 00:59:53;;;;;;;2.45;1.75;;;17.00;99.90;;;;;;4130911;28;20490;-54
2023/04/28 01:01:55;;;;;;;4.50;2.22;;;17.00;99.90;;;;;;4131108;28;20078;-51
2023/04/28 01:03:57;;;;;;;2.92;1.83;;;16.90;99.90;;;;;;4131664;28;20053;-53
2023/04/28 01:06:00;;;;;;;3.40;1.95;;;16.90;99.90;;;;;;4131579;28;20050;-51
2023/04/28 01:08:03;;;;;;;3.67;2.08;;;16.90;99.90;;;;;;4131276;28;20046;-53
2023/04/28 01:10:07;;;;;;;4.40;1.75;;;16.90;99.90;;;;;;4130502;28;20538;-52
2023/04/28 01:12:10;;;;;;;2.33;1.65;;;16.90;99.90;;;;;;4132028;28;20407;-51
2023/04/28 01:14:13;;;;;;;3.28;1.65;;;16.90;99.90;;;;;;4114531;28;20085;-52
2023/04/28 01:16:15;;;;;;;3.22;1.88;;;16.90;99.90;;;;;;4131424;28;20043;-51
2023/04/28 01:18:17;;;;;;;2.55;1.65;;;16.90;99.90;;;;;;4131486;28;20050;-53
2023/04/28 01:20:20;;;;;;;2.25;1.73;;;17.00;99.90;;;;;;4130699;28;20164;-55
2023/04/28 01:22:22;;;;;;;2.58;1.70;;;16.90;99.90;;;;;;4131870;28;20440;-51
2023/04/28 01:24:25;;;;;;;3.60;1.70;;;16.90;99.90;;;;;;4114090;28;20058;-51
2023/04/28 01:26:27;;;;;;;3.95;1.75;;;16.90;99.90;;;;;;4131087;28;20054;-50
2023/04/28 01:28:30;;;;;;;3.03;1.80;;;16.90;99.90;;;;;;4131243;28;20510;-51
2023/04/28 01:30:32;;;;;;;5.13;1.83;;;16.90;99.90;;;;;;4129776;28;20487;-52
2023/04/28 01:32:34;;;;;;;2.50;1.48;;;16.90;99.90;;;;;;4131392;28;20535;-51
2023/04/28 01:34:36;;;;;;;3.40;1.58;;;17.00;99.90;;;;;;4133004;28;20099;-51
2023/04/28 01:36:39;;;;;;;4.43;1.50;;;17.00;99.90;;;;;;4134410;28;20050;-51
2023/04/28 01:38:41;;;;;;;3.22;1.90;;;16.90;99.90;;;;;;4133438;28;20387;-51
2023/04/28 01:40:44;;;;;;;3.33;1.50;;;16.90;99.90;;;;;;4133517;28;20472;-51
2023/04/28 01:42:46;;;;;;;3.53;1.67;;;16.90;99.90;;;;;;4134512;28;20117;-52
2023/04/28 01:44:48;;;;;;;4.15;1.60;;;16.90;99.90;;;;;;4134286;28;20318;-52
2023/04/28 01:46:50;;;;;;;4.45;1.70;;;16.80;99.90;;;;;;4134065;28;20059;-51
2023/04/28 01:48:55;;;;;;;4.10;1.77;;;16.80;99.90;;;;;;4134151;28;20057;-51
2023/04/28 01:50:57;;;;;;;2.10;1.60;;;16.80;99.90;;;;;;4133328;28;20154;-52
2023/04/28 01:52:59;;;;;;;3.13;1.50;;;16.80;99.90;;;;;;4134426;28;20056;-52
2023/04/28 01:55:01;;;;;;;1.60;1.50;;;16.90;99.90;;;;;;4134317;28;20546;-51
2023/04/28 01:57:04;;;;;;;5.95;1.80;;;16.80;99.90;;;;;;4136356;28;20125;-50
2023/04/28 01:59:07;;;;;;;3.30;1.85;;;16.90;99.90;;;;;;4116729;28;20056;-51
2023/04/28 02:01:08;;;;;;;2.35;2.10;;;16.90;99.90;;;;;;4133021;28;20105;-52
2023/04/28 02:03:11;;;;;;;3.40;1.83;;;16.80;99.90;;;;;;4134372;28;20047;-51
2023/04/28 02:05:13;;;;;;;2.25;1.50;;;16.80;99.90;;;;;;4116610;28;20050;-52
2023/04/28 02:07:15;;;;;;;1.40;1.20;;;16.80;99.90;;;;;;4133868;28;20050;-51
2023/04/28 02:09:17;;;;;;;2.35;1.55;;;16.80;99.90;;;;;;4133094;28;20053;-51
2023/04/28 02:11:19;;;;;;;3.45;1.48;;;16.80;99.90;;;;;;4132849;28;20065;-51
2023/04/28 02:13:23;;;;;;;4.25;1.70;;;16.80;99.90;;;;;;4133549;28;20084;-53
2023/04/28 02:15:25;;;;;;;3.50;1.52;;;16.80;99.90;;;;;;4133755;28;20046;-53
2023/04/28 02:17:29;;;;;;;6.18;1.77;;;16.80;99.90;;;;;;4133876;28;20360;-53
2023/04/28 02:19:31;;;;;;;2.05;1.35;;;16.80;99.90;;;;;;4133709;28;20042;-54
2023/04/28 02:21:33;;;;;;;5.70;1.95;;;16.80;99.90;;;;;;4132768;28;20050;-51
2023/04/28 02:23:35;;;;;;;1.50;1.25;;;16.90;99.90;;;;;;4134024;28;20125;-51
2023/04/28 02:25:37;;;;;;;1.40;1.30;;;16.90;99.90;;;;;;4133391;28;20462;-52
2023/04/28 02:27:39;;;;;;;3.45;1.48;;;16.80;99.90;;;;;;4133323;28;20133;-52
2023/04/28 02:29:43;;;;;;;2.50;1.30;;;16.80;99.90;;;;;;4133545;28;20051;-52
2023/04/28 02:31:45;;;;;;;2.20;1.40;;;16.90;99.90;;;;;;4132941;28;20053;-51
2023/04/28 02:33:49;;;;;;;3.30;1.20;;;16.80;99.90;;;;;;4133637;28;20046;-52
2023/04/28 02:35:58;;;;;;;2.45;1.40;;;16.90;99.90;;;;;;4133560;28;20046;-53
2023/04/28 02:38:00;;;;;;;2.45;1.52;;;16.90;99.90;;;;;;4133711;28;20054;-51
2023/04/28 02:40:02;;;;;;;1.20;1.08;;;16.90;99.90;;;;;;4132768;28;20393;-51
2023/04/28 02:42:07;;;;;;;;;;;16.90;99.90;;;;;;4133677;28;20499;-51
2023/04/28 02:44:09;;;;;;;3.35;1.20;;;16.80;99.90;;;;;;4133501;28;19932;-52
2023/04/28 02:46:12;;;;;;;2.65;1.30;;;16.80;99.90;;;;;;4116255;28;20107;-51
2023/04/28 02:48:15;;;;;;;3.50;1.25;;;16.80;99.90;;;;;;4133346;28;20050;-51
2023/04/28 02:50:18;;;;;;;3.42;1.20;;;16.80;99.90;;;;;;4132447;28;20549;-51
2023/04/28 02:52:20;;;;;;;2.15;1.33;;;16.90;99.90;;;;;;4133364;28;20054;-51
2023/04/28 02:54:27;;;;;;;4.30;1.42;;;16.90;99.90;;;;;;4133513;28;20403;-51
2023/04/28 02:56:30;;;;;;;3.10;1.38;;;16.90;99.90;;;;;;4132987;28;20481;-52
2023/04/28 02:58:32;;;;;;;2.15;0.90;;;16.80;99.90;;;;;;4133125;28;20046;-52
2023/04/28 03:00:34;;;;;;;1.88;1.00;;;16.90;99.90;;;;;;4132195;28;20046;-51
2023/04/28 03:02:37;;;;;;;2.80;1.27;;;16.90;99.90;;;;;;4133072;28;20046;-52
2023/04/28 03:04:40;;;;;;;2.70;1.15;;;16.90;99.90;;;;;;4133302;28;20061;-51
2023/04/28 03:06:43;;;;;;;2.13;1.27;;;16.90;99.90;;;;;;4133108;28;20074;-51
2023/04/28 03:08:45;;;;;;;1.98;1.20;;;16.90;99.90;;;;;;4133005;28;20504;-50
2023/04/28 03:10:47;;;;;;;1.27;0.80;;;16.90;99.90;;;;;;4132140;28;20085;-50
2023/04/28 03:12:49;;;;;;;1.05;0.88;;;16.90;99.90;;;;;;4132751;28;20073;-51
2023/04/28 03:14:51;;;;;;;2.45;0.98;;;16.90;99.90;;;;;;4133216;28;20042;-53
2023/04/28 03:16:53;;;;;;;0.88;0.70;;;16.90;99.90;;;;;;4132756;28;20100;-52
2023/04/28 03:18:56;;;;;;;1.23;0.75;;;16.90;99.90;;;;;;4133044;28;20042;-52
2023/04/28 03:20:58;;;;;;;1.23;0.90;;;16.90;99.90;;;;;;4131660;28;20462;-52
2023/04/28 03:23:01;;;;;;;1.65;0.77;;;16.90;99.90;;;;;;4133099;28;20050;-52
2023/04/28 03:25:04;;;;;;;1.48;0.70;;;16.90;99.90;;;;;;4132823;28;20054;-52
2023/04/28 03:27:06;;;;;;;0.80;0.70;;;16.90;99.90;;;;;;4132752;28;20046;-52
2023/04/28 03:29:08;;;;;;;1.45;1.00;;;17.00;99.90;;;;;;4132728;28;20081;-53
2023/04/28 03:31:10;;;;;;;1.98;1.05;;;17.00;99.90;;;;;;4131655;28;20455;-50
2023/04/28 03:33:12;;;;;;;1.88;0.77;;;17.00;99.90;;;;;;4133069;28;20061;-52
2023/04/28 03:35:16;;;;;;;1.08;0.70;;;17.00;99.90;;;;;;4132865;28;20054;-57
2023/04/28 03:37:18;;;;;;;2.45;1.10;;;17.00;99.90;;;;;;4132700;28;20042;-49
2023/04/28 03:39:20;;;;;;;0.70;0.70;;;17.00;99.90;;;;;;4132918;28;20054;-51
2023/04/28 03:41:22;;;;;;;0.75;0.70;;;17.00;99.90;;;;;;4115044;28;20102;-52
2023/04/28 03:43:24;;;;;;;1.60;0.70;;;17.00;99.90;;;;;;4132978;28;20046;-51
2023/04/28 03:45:26;;;;;;;3.45;0.80;;;17.00;99.90;;;;;;4132886;28;20376;-51
2023/04/28 03:47:28;;;;;;;1.02;0.50;;;17.00;99.90;;;;;;4115117;28;20078;-52
2023/04/28 03:49:30;;;;;;;0.68;0.68;;;17.00;99.90;;;;;;4132673;28;20054;-52
2023/04/28 03:51:33;;;;;;;1.67;0.80;;;17.00;99.90;;;;;;4131672;28;20442;-51
2023/04/28 03:53:35;;;;;;;1.30;0.60;;;16.90;99.90;;;;;;4132398;28;20116;-51
2023/04/28 03:55:38;;;;;;;1.58;0.63;;;17.00;99.90;;;;;;4131962;28;20054;-51
2023/04/28 03:57:40;;;;;;;1.15;0.50;;;17.00;99.90;;;;;;4131843;28;20069;-50
2023/04/28 03:59:42;;;;;;;1.55;0.65;;;16.90;99.90;;;;;;4132238;28;20491;-52
2023/04/28 04:01:44;;;;;;;2.40;0.60;;;16.90;99.90;;;;;;4131289;28;20043;-52
2023/04/28 04:03:46;;;;;;;0.90;0.60;;;16.90;99.90;;;;;;4132108;28;20046;-52
2023/04/28 04:05:48;;;;;;;1.58;0.65;;;16.90;99.90;;;;;;4132175;28;20046;-51
2023/04/28 04:07:55;;;;;;;1.25;0.77;;;16.90;99.90;;;;;;4132053;28;20175;-52
2023/04/28 04:09:57;;;;;;;1.13;0.80;;;16.90;99.90;;;;;;4131848;28;20067;-51
2023/04/28 04:12:00;;;;;;;1.67;0.70;;;16.90;99.90;;;;;;4131272;28;20060;-51
2023/04/28 04:14:02;;;;;;;0.93;0.52;;;17.00;99.90;;;;;;4132005;28;20157;-52
2023/04/28 04:16:05;;;;;;;0.45;0.40;;;17.00;99.90;;;;;;4132145;28;20042;-52
2023/04/28 04:18:07;;;;;;;1.45;0.65;;;17.00;99.90;;;;;;4131998;28;20057;-52
2023/04/28 04:20:13;;;;;;;1.15;0.70;;;16.90;99.90;;;;;;4131543;28;20061;-52
2023/04/28 04:22:15;;;;;;;0.63;0.63;;;17.00;99.90;;;;;;4131367;28;20467;-52
2023/04/28 04:24:19;;;;;;;1.33;0.70;;;17.00;99.90;;;;;;4131797;28;20443;-51
2023/04/28 04:26:21;;;;;;;2.75;0.50;;;17.00;99.90;;;;;;4114477;28;20082;-52
2023/04/28 04:28:23;;;;;;;0.73;0.60;;;16.90;99.90;;;;;;4132064;28;20101;-52
2023/04/28 04:30:25;;;;;;;0.60;0.43;;;16.90;99.90;;;;;;4113786;28;20059;-52
2023/04/28 04:32:28;;;;;;;0.63;0.50;;;17.00;99.90;;;;;;4114421;28;20065;-52
2023/04/28 04:34:30;;;;;;;2.75;0.60;;;17.00;99.90;;;;;;4131999;28;20157;-51
2023/04/28 04:36:32;;;;;;;0.85;0.60;;;16.90;99.90;;;;;;4131884;28;20069;-51
2023/04/28 04:38:34;;;;;;;0.63;0.55;;;16.90;99.90;;;;;;4131700;28;20043;-56
2023/04/28 04:40:38;;;;;;;0.63;0.50;;;16.90;99.90;;;;;;4131142;28;20498;-52
2023/04/28 04:42:39;;;;;;;1.25;0.60;;;17.00;99.90;;;;;;4132034;28;20053;-52
2023/04/28 04:44:42;;;;;;;0.65;0.50;;;16.90;99.90;;;;;;4131954;28;20096;-52
2023/04/28 04:46:45;;;;;;;0.68;0.60;;;16.90;99.90;;;;;;4131855;28;20046;-51
2023/04/28 04:48:48;;;;;;;1.83;0.65;;;16.90;99.90;;;;;;4132954;28;20108;-54
2023/04/28 04:50:50;;;;;;;2.35;0.90;;;16.90;99.90;;;;;;4132477;28;20094;-55
2023/04/28 04:52:55;;;;;;;1.48;0.55;;;16.90;99.90;;;;;;4133150;28;20074;-60
2023/04/28 04:54:57;;;;;;;1.00;0.60;;;16.90;99.90;;;;;;4133613;28;20073;-56
2023/04/28 04:57:01;;;;;;;0.85;0.60;;;16.90;99.90;;;;;;4115821;28;20066;-53
2023/04/28 04:59:03;;;;;;;1.45;0.47;;;16.90;99.90;;;;;;4133198;28;20046;-52
2023/04/28 05:01:06;;;;;;;1.90;0.88;;;16.90;99.90;;;;;;4130852;28;20133;-53
2023/04/28 05:03:08;;;;;;;1.27;0.50;;;16.90;99.90;;;;;;4131971;28;20046;-52
2023/04/28 05:05:10;;;;;;;0.88;0.52;;;16.90;99.90;;;;;;4131814;28;20169;-52
2023/04/28 05:07:22;;;;;;;1.08;0.70;;;16.90;99.90;;;;;;4132230;28;20046;-54
2023/04/28 05:09:25;;;;;;;4.57;0.60;;;17.00;99.90;;;;;;4131580;28;20246;-55
2023/04/28 05:11:27;;;;;;;0.80;0.70;;;17.00;99.90;;;;;;4131862;28;20042;-52
2023/04/28 05:13:30;;;;;;;1.05;0.60;;;17.00;99.90;;;;;;4132969;28;20129;-56
2023/04/28 05:15:33;;;;;;;2.25;0.60;;;17.00;99.90;;;;;;4133025;28;20108;-52
2023/04/28 05:17:35;;;;;;;1.77;0.70;;;16.90;99.90;;;;;;4132621;28;20150;-54
2023/04/28 05:19:37;;;;;;;1.60;0.90;;;17.00;99.90;;;;;;4132176;28;20089;-52
2023/04/28 05:21:39;;;;;;;1.05;0.50;;;16.90;99.90;;;;;;4112723;28;20114;-51
2023/04/28 05:23:41;;;;;;;0.88;0.50;;;17.00;99.90;;;;;;4131815;28;20488;-54
2023/04/28 05:25:43;;;;;;;1.77;0.77;;;17.00;99.90;;;;;;4115570;28;20042;-51
2023/04/28 05:27:45;;;;;;;1.50;0.95;;;17.00;99.90;;;;;;4131198;28;20484;-51
2023/04/28 05:29:51;;;;;;;2.15;0.93;;;17.00;99.90;;;;;;4131536;28;20055;-52
2023/04/28 05:31:53;;;;;;;2.28;0.80;;;17.10;99.90;;;;;;4112717;28;20129;-52
2023/04/28 05:33:55;;;;;;;1.73;0.65;;;17.00;99.90;;;;;;4131393;28;20495;-51
2023/04/28 05:35:58;;;;;;;1.30;0.90;;;17.00;99.90;;;;;;4131345;28;20058;-51
2023/04/28 05:38:00;;;;;;;1.02;0.80;;;16.90;99.90;;;;;;4131451;28;20105;-52
2023/04/28 05:40:03;;;;;;;1.40;0.90;;;17.00;99.90;;;;;;4131435;28;20050;-52
2023/04/28 05:42:05;;;;;;;1.52;1.00;;;17.00;99.90;;;;;;4130362;28;20053;-51
2023/04/28 05:44:08;;;;;;;2.88;1.05;;;17.00;99.90;;;;;;4131415;28;20122;-53
2023/04/28 05:46:12;;;;;;;1.40;0.98;;;17.10;99.90;;;;;;4131397;28;20415;-53
2023/04/28 05:48:30;;;;;;;1.83;1.08;;;17.00;99.90;;;;;;4131051;28;20089;-52
2023/04/28 05:50:32;;;;;;;2.20;0.90;;;17.10;99.90;;;;;;4130256;28;20047;-52
2023/04/28 05:52:34;;;;;;;3.35;0.60;;;17.10;99.90;;;;;;4130893;28;20081;-53
2023/04/28 05:54:36;;;;;;;1.10;1.00;;;17.10;99.90;;;;;;4131166;28;20051;-52
2023/04/28 05:56:38;;;;;;;4.10;1.00;;;17.10;99.90;;;;;;4131189;28;20046;-52
2023/04/28 05:58:43;;;;;;;3.10;0.98;;;17.10;99.90;;;;;;4130841;28;20506;-52
2023/04/28 06:00:45;;;;;;;1.27;1.15;;;17.20;99.90;;;;;;4130054;28;20500;-52
2023/04/28 06:02:49;;;;;;;5.22;1.10;;;17.10;99.90;;;;;;4130738;28;20050;-51
2023/04/28 06:04:51;;;;;;;1.08;0.80;;;17.20;99.90;;;;;;4130914;28;20061;-51
2023/04/28 06:06:56;;;;;;;1.25;0.70;;;17.20;99.90;;;;;;4130698;28;20403;-53
2023/04/28 06:08:58;;;;;;;1.08;0.85;;;17.20;99.90;;;;;;4131042;28;20129;-52
2023/04/28 06:11:00;;;;;;;3.30;0.80;;;17.20;99.90;;;;;;4112599;28;20436;-51
2023/04/28 06:13:03;;;;;;;1.58;0.90;;;17.20;99.90;;;;;;4130966;28;20125;-52
2023/04/28 06:15:06;;;;;;;5.75;1.35;;;17.20;99.90;;;;;;4130925;28;20046;-53
2023/04/28 06:17:08;;;;;;;1.77;0.93;;;17.20;99.90;;;;;;4130792;28;20051;-51
2023/04/28 06:19:13;;;;;;;2.67;0.95;;;17.20;99.90;;;;;;4130864;28;20142;-52
2023/04/28 06:21:15;;;;;;;4.47;1.08;;;17.30;99.90;;;;;;4131909;28;20389;-51
2023/04/28 06:23:17;;;;;;;3.95;1.23;;;17.20;99.90;;;;;;4133827;28;20046;-52
2023/04/28 06:25:20;;;;;;;2.95;0.90;;;17.20;99.90;;;;;;4116454;28;20051;-51
2023/04/28 06:27:22;;;;;;;0.98;0.85;;;17.20;99.90;;;;;;4133537;28;20129;-52
2023/04/28 06:29:24;;;;;;;1.95;0.82;;;17.20;99.90;;;;;;4133580;28;20129;-54
2023/04/28 06:31:26;;;;;;;3.75;1.30;;;17.20;99.90;;;;;;4132798;28;20042;-52
2023/04/28 06:33:28;;;;;;;4.65;1.30;;;17.20;99.90;;;;;;4133762;28;20125;-51
2023/04/28 06:35:35;;;;;;;1.80;1.02;;;17.20;99.90;;;;;;4133335;28;20077;-52
2023/04/28 06:37:37;;;;;;;1.90;0.98;;;17.30;99.90;;;;;;4133550;28;20051;-51
2023/04/28 06:39:39;;;;;;;4.20;1.33;;;17.30;99.90;;;;;;4133592;28;20092;-51
2023/04/28 06:41:42;;;;;;;2.90;1.30;;;17.30;99.90;;;;;;4132493;28;20109;-51
2023/04/28 06:43:44;;;;;;;1.63;0.95;;;17.40;99.90;;;;;;4133693;28;20046;-51
2023/04/28 06:45:46;;;;;;;5.70;1.70;;;17.40;99.90;;;;;;4133619;28;20057;-53
2023/04/28 06:47:48;;;;;;;4.32;1.50;;;17.50;99.90;;;;;;4133641;28;20109;-52
2023/04/28 06:49:52;;;;;;;2.25;1.20;;;17.50;99.90;;;;;;4133359;28;20047;-52
2023/04/28 06:51:56;;;;;;;7.45;1.50;;;17.60;99.90;;;;;;4132464;28;20061;-51
2023/04/28 06:53:58;;;;;;;3.53;1.20;;;17.70;99.90;;;;;;4133662;28;20046;-51
2023/04/28 06:56:01;;;;;;;1.60;1.10;;;17.60;99.90;;;;;;4133413;28;20066;-51
2023/04/28 06:58:04;;;;;;;2.25;1.17;;;17.60;99.90;;;;;;4133457;28;20497;-53
2023/04/28 07:00:08;;;;;;;2.55;1.27;;;17.50;99.90;;;;;;4133096;28;20043;-52
2023/04/28 07:02:10;;;;;;;2.15;1.00;;;17.60;99.90;;;;;;4132209;28;20163;-51
2023/04/28 07:04:12;;;;;;;2.53;1.38;;;17.60;99.90;;;;;;4130199;28;20109;-52
2023/04/28 07:06:15;;;;;;;5.65;1.50;;;17.50;99.90;;;;;;4099632;29;20063;-52
2023/04/28 07:08:19;;;;;;;2.00;1.20;;;17.50;99.90;;;;;;4101370;29;20047;-54
2023/04/28 07:10:21;;;;;;;3.38;1.60;;;17.50;99.90;;;;;;4092739;28;20142;-52
2023/04/28 07:12:23;;;;;;;3.47;1.27;;;17.50;99.90;;;;;;4110025;28;20038;-51
2023/04/28 07:14:25;;;;;;;4.63;1.40;;;17.50;99.90;;;;;;4111664;28;20047;-52
2023/04/28 07:16:28;;;;;;;4.70;1.63;;;17.50;99.90;;;;;;4113285;28;20050;-52
2023/04/28 07:18:30;;;;;;;2.03;1.52;;;17.60;99.90;;;;;;4116145;28;20042;-51
2023/04/28 07:20:32;;;;;;;2.38;1.40;;;17.60;99.90;;;;;;4108930;28;20514;-51
2023/04/28 07:22:34;;;;;;;2.20;1.33;;;17.60;99.90;;;;;;4113105;28;20054;-53
2023/04/28 07:24:38;;;;;;;7.65;1.80;;;17.70;99.90;;;;;;4114722;28;20043;-51
2023/04/28 07:26:40;;;;;;;2.60;1.63;;;17.80;99.90;;;;;;4125981;28;20112;-52
2023/04/28 07:28:43;;;;;;;5.05;2.42;;;17.90;99.90;;;;;;4115887;28;20055;-51
2023/04/28 07:30:45;;;;;;;2.80;1.35;;;17.90;99.90;;;;;;4112630;28;20437;-52
2023/04/28 07:32:47;;;;;;;3.30;1.38;;;18.00;99.90;;;;;;4102246;28;20054;-58
2023/04/28 07:34:49;;;;;;;6.63;1.90;;;18.00;99.90;;;;;;4101084;28;20051;-52
2023/04/28 07:36:52;;;;;;;3.40;1.73;;;18.10;99.90;;;;;;4110677;28;20127;-54
2023/04/28 07:38:54;;;;;;;6.10;1.67;;;18.20;99.90;;;;;;4100479;29;20055;-52
2023/04/28 07:40:57;;;;;;;7.78;1.60;;;18.30;99.90;;;;;;4105375;28;20051;-52
2023/04/28 07:42:59;;;;;;;4.38;1.42;;;18.40;99.90;;;;;;4104965;28;20051;-56
2023/04/28 07:45:06;;;;;;;7.97;2.33;;;18.30;99.90;;;;;;4110450;28;20047;-52
2023/04/28 07:47:08;;;;;;;4.80;1.67;;;18.30;99.90;;;;;;4112631;28;20421;-53
2023/04/28 07:49:10;;;;;;;5.70;1.80;;;18.30;99.90;;;;;;4115900;28;20122;-53
2023/04/28 07:51:12;;;;;;;3.67;1.48;;;18.40;99.90;;;;;;4109028;28;20567;-52
2023/04/28 07:53:14;;;;;;;3.72;1.25;;;18.30;99.90;;;;;;4109482;28;20149;-55
2023/04/28 07:55:16;;;;;;;2.60;1.70;;;18.20;99.90;;;;;;4115584;28;20105;-53
2023/04/28 07:57:22;;;;;;;8.70;2.78;;;18.20;99.90;;;;;;4111989;28;20085;-58
2023/04/28 07:59:24;;;;;;;10.00;2.33;;;18.20;99.90;;;;;;4082907;29;20126;-57
2023/04/28 08:01:26;;;;;;;5.93;2.28;;;18.30;99.90;;;;;;4103238;28;20050;-53
2023/04/28 08:03:28;;;;;;;6.38;2.10;;;18.30;99.90;;;;;;4106008;28;20039;-53
2023/04/28 08:05:31;;;;;;;7.30;2.20;;;18.30;99.90;;;;;;4099846;28;20086;-51
2023/04/28 08:07:33;;;;;;;8.55;3.88;;;18.30;99.90;;;;;;4104960;28;20047;-53
2023/04/28 08:09:35;;;;;;;2.90;1.75;;;18.40;99.90;;;;;;4116020;28;20047;-53
2023/04/28 08:11:38;;;;;;;4.25;1.98;;;18.30;99.90;;;;;;4111030;28;20053;-51
2023/04/28 08:13:41;;;;;;;5.50;1.70;;;18.30;99.90;;;;;;4111359;28;20142;-51
2023/04/28 08:15:43;;;;;;;6.00;1.70;;;18.40;99.90;;;;;;4115401;28;20505;-51
2023/04/28 08:17:45;;;;;;;4.03;1.65;;;18.30;99.90;;;;;;4109894;28;20046;-60
2023/04/28 08:19:47;;;;;;;4.75;1.30;;;18.30;99.90;;;;;;4121590;28;20074;-54
2023/04/28 08:21:49;;;;;;;13.30;1.80;;;18.30;99.90;;;;;;4114421;28;20434;-51
2023/04/28 08:23:51;;;;;;;20.23;2.65;;;18.40;99.90;;;;;;4124757;28;20043;-52
2023/04/28 08:25:54;;;;;;;45.70;4.05;;;18.40;99.90;;;;;;4116398;28;20452;-55
2023/04/28 08:27:56;;;;;;;4.00;1.17;;;18.40;99.90;;;;;;4104186;28;20105;-59
2023/04/28 08:30:00;;;;;;;4.18;1.70;;;18.30;99.90;;;;;;4113790;28;20098;-59
2023/04/28 08:32:03;;;;;;;7.20;1.80;;;18.40;99.90;;;;;;4096543;29;20114;-58
2023/04/28 08:34:05;;;;;;;10.18;2.38;;;18.30;99.90;;;;;;4105860;28;20051;-56
2023/04/28 08:36:07;;;;;;;6.28;2.67;;;18.40;99.90;;;;;;4128948;28;20046;-56
2023/04/28 08:38:12;;;;;;;5.70;1.70;;;18.40;99.90;;;;;;4098131;28;20053;-52
2023/04/28 08:40:15;;;;;;;9.63;4.70;;;18.40;99.90;;;;;;4128873;28;20048;-59
2023/04/28 08:42:18;;;;;;;13.75;3.60;;;18.50;99.90;;;;;;4111525;28;20098;-53
2023/04/28 08:44:22;;;;;;;13.10;5.82;;;18.60;99.90;;;;;;4111089;28;20047;-61
2023/04/28 08:46:27;;;;;;;7.05;3.80;;;18.60;99.90;;;;;;4101856;28;20074;-54
2023/04/28 08:48:37;;;;;;;8.93;3.25;;;18.70;99.90;;;;;;4112323;28;20054;-53
2023/04/28 08:50:42;;;;;;;5.53;3.45;;;18.80;99.90;;;;;;4103065;28;20047;-51
2023/04/28 08:52:46;;;;;;;4.32;2.70;;;18.80;99.90;;;;;;4113572;28;20062;-52
2023/04/28 08:54:49;;;;;;;3.95;2.10;;;18.80;99.90;;;;;;4110049;28;20043;-52
2023/04/28 08:56:52;;;;;;;2.17;1.42;;;18.90;99.90;;;;;;4100378;29;20058;-51
2023/04/28 08:58:54;;;;;;;6.40;2.88;;;18.80;99.90;;;;;;4108454;28;20141;-52
2023/04/28 09:00:57;;;;;;;3.15;2.17;;;18.80;99.90;;;;;;4101921;28;20051;-54
2023/04/28 09:03:00;;;;;;;4.88;2.65;;;18.80;99.90;;;;;;4102038;28;20046;-54
2023/04/28 09:05:05;;;;;;;7.32;3.17;;;18.80;99.90;;;;;;4104481;28;20204;-54
2023/04/28 09:07:10;;;;;;;3.25;2.95;;;18.80;99.90;;;;;;4107297;28;20507;-53
2023/04/28 09:09:23;;;;;;;5.57;1.98;;;18.80;99.90;;;;;;4103433;28;20055;-54
2023/04/28 09:11:25;;;;;;;3.30;1.40;;;18.80;99.90;;;;;;4113041;28;20740;-54
2023/04/28 09:13:27;;;;;;;5.35;1.55;;;18.80;99.90;;;;;;4112436;28;20042;-53
2023/04/28 09:15:31;;;;;;;2.67;1.30;;;18.80;99.90;;;;;;4110040;28;20046;-54
2023/04/28 09:17:47;;;;;;;3.53;1.23;;;18.90;99.90;;;;;;4114808;28;20130;-55
2023/04/28 09:19:51;;;;;;;3.53;1.73;;;19.00;99.90;;;;;;4111992;28;20047;-53
2023/04/28 09:21:59;;;;;;;3.20;1.10;;;19.00;99.90;;;;;;4108773;28;20169;-55
2023/04/28 09:24:11;;;;;;;;;;;19.10;99.90;;;;;;4092315;29;20420;-53
2023/04/28 09:26:13;;;;;;;8.23;1.52;;;19.10;99.90;;;;;;4116774;28;19965;-52
2023/04/28 09:28:20;;;;;;;9.02;1.80;;;19.10;99.90;;;;;;4130512;28;20046;-57
2023/04/28 09:30:39;;;;;;;11.38;2.03;;;19.30;99.90;;;;;;4112835;28;20055;-60
2023/04/28 09:32:41;;;;;;;6.10;1.55;;;19.40;99.90;;;;;;4105096;28;20043;-53
2023/04/28 09:34:45;;;;;;;8.15;1.80;;;19.30;99.90;;;;;;4106769;28;20054;-55
2023/04/28 09:36:48;;;;;;;2.90;0.70;;;19.40;99.90;;;;;;4109965;28;20047;-53
2023/04/28 09:38:51;;;;;;;4.03;1.27;;;19.30;99.90;;;;;;4113004;28;20055;-54
2023/04/28 09:40:57;;;;;;;2.90;1.35;;;19.30;99.90;;;;;;4103758;28;20058;-53
2023/04/28 09:42:59;;;;;;;2.83;1.15;;;19.30;99.90;;;;;;4112975;28;20047;-53
2023/04/28 09:45:14;;;;;;;4.82;1.73;;;19.30;99.90;;;;;;4106958;28;20118;-53
2023/04/28 09:47:21;;;;;;;4.10;1.30;;;19.30;99.90;;;;;;4108265;28;20058;-53
2023/04/28 09:49:23;;;;;;;4.45;1.48;;;19.40;99.90;;;;;;4094699;29;20460;-53
2023/04/28 09:51:25;;;;;;;2.15;1.20;;;19.40;99.90;;;;;;4107775;28;20039;-54
2023/04/28 09:53:29;;;;;;;5.15;1.33;;;19.40;99.90;;;;;;4098246;29;20047;-53
2023/04/28 09:55:33;;;;;;;7.20;1.40;;;19.30;99.90;;;;;;4106998;28;20097;-53
2023/04/28 09:57:36;;;;;;;3.08;1.17;;;19.30;99.90;;;;;;4105820;28;20126;-53
2023/04/28 09:59:39;;;;;;;2.00;1.23;;;19.30;99.90;;;;;;4102545;28;20059;-56
2023/04/28 10:01:42;;;;;;;4.18;1.70;;;19.40;99.90;;;;;;4111098;28;20452;-53
2023/04/28 10:03:46;;;;;;;2.65;1.80;;;19.30;99.90;;;;;;4101734;28;20330;-54
2023/04/28 10:05:49;;;;;;;13.15;1.65;;;19.30;99.90;;;;;;4113352;28;20047;-53
2023/04/28 10:07:54;;;;;;;6.65;1.67;;;19.20;99.90;;;;;;4111496;28;20480;-54
2023/04/28 10:09:58;;;;;;;2.58;1.80;;;19.20;99.90;;;;;;4116208;28;20098;-53
2023/04/28 10:12:01;;;;;;;4.78;1.80;;;19.20;99.90;;;;;;4110803;28;20051;-54
2023/04/28 10:14:03;;;;;;;4.95;1.98;;;19.10;99.90;;;;;;4101142;29;20065;-53
2023/04/28 10:16:06;;;;;;;3.47;1.50;;;19.10;99.90;;;;;;4108125;28;20047;-54
2023/04/28 10:18:11;;;;;;;5.85;1.50;;;19.10;99.90;;;;;;4110201;28;20094;-57
2023/04/28 10:20:15;;;;;;;3.63;1.70;;;19.20;99.90;;;;;;4116563;28;20456;-54
2023/04/28 10:22:32;;;;;;;2.90;1.30;;;19.20;99.90;;;;;;4114681;28;20560;-55
2023/04/28 10:24:53;;;;;;;6.43;1.60;;;19.20;99.90;;;;;;4101786;29;20047;-54
2023/04/28 10:27:06;;;;;;;1.90;1.10;;;19.30;99.90;;;;;;4112145;28;20054;-54
2023/04/28 10:29:08;;;;;;;8.40;1.15;;;19.30;99.90;;;;;;4101518;28;20051;-56
2023/04/28 10:31:11;;;;;;;1.60;1.00;;;19.30;99.90;;;;;;4103698;28;20106;-53
2023/04/28 10:33:25;;;;;;;1.38;1.13;;;19.40;99.90;;;;;;4109009;28;20107;-55
2023/04/28 10:35:41;;;;;;;2.13;1.30;;;19.40;99.90;;;;;;4083852;29;20107;-53
2023/04/28 10:38:04;;;;;;;5.13;1.40;;;19.40;99.90;;;;;;4100281;28;20050;-53
2023/04/28 10:40:32;;;;;;;3.17;1.15;;;19.50;99.90;;;;;;4116816;28;20047;-53
2023/04/28 10:42:53;;;;;;;3.05;1.40;;;19.70;99.90;;;;;;4111178;28;20499;-53